sensor_id;sensor_type;location;lat;lon;timestamp;P1;durP1;ratioP1;P2;durP2;ratioP2
8399;SDS011;4237;47.030;15.396;2023-07-02T00:00:08;4.10;;;2.20;;
8399;SDS011;4237;47.030;15.396;2023-07-02T00:02:37;3.40;;;2.23;;
8399;SDS011;4237;47.030;15.396;2023-07-02T00:05:05;4.20;;;2.20;;
8399;SDS011;4237;47.030;15.396;2023-07-02T00:07:34;3.83;;;1.83;;
8399;SDS011;4237;47.030;15.396;2023-07-02T00:10:03;3.35;;;1.80;;
8399;SDS011;4237;47.030;15.396;2023-07-02T00:12:32;4.95;;;2.45;;
8399;SDS011;4237;47.030;15.396;2023-07-02T00:15:00;2.75;;;2.10;;
8399;SDS011;4237;47.030;15.396;2023-07-02T00:17:29;2.70;;;1.90;;
8399;SDS011;4237;47.030;15.396;2023-07-02T00:19:57;3.30;;;1.70;;
8399;SDS011;4237;47.030;15.396;2023-07-02T00:22:27;3.40;;;2.50;;
8399;SDS011;4237;47.030;15.396;2023-07-02T00:24:55;4.60;;;2.17;;
8399;SDS011;4237;47.030;15.396;2023-07-02T00:27:23;3.37;;;2.47;;
8399;SDS011;4237;47.030;15.396;2023-07-02T00:29:51;2.00;;;1.80;;
8399;SDS011;4237;47.030;15.396;2023-07-02T00:32:20;3.70;;;2.40;;
8399;SDS011;4237;47.030;15.396;2023-07-02T00:34:48;2.37;;;2.00;;
8399;SDS011;4237;47.030;15.396;2023-07-02T00:37:16;2.80;;;2.20;;
8399;SDS011;4237;47.030;15.396;2023-07-02T00:39:44;2.40;;;1.95;;
8399;SDS011;4237;47.030;15.396;2023-07-02T00:42:13;3.40;;;2.10;;
8399;SDS011;4237;47.030;15.396;2023-07-02T00:44:42;2.70;;;2.30;;
8399;SDS011;4237;47.030;15.396;2023-07-02T00:47:10;4.05;;;2.60;;
8399;SDS011;4237;47.030;15.396;2023-07-02T00:49:39;2.80;;;2.10;;
8399;SDS011;4237;47.030;15.396;2023-07-02T00:52:08;3.65;;;2.50;;
8399;SDS011;4237;47.030;15.396;2023-07-02T00:54:36;4.40;;;2.10;;
8399;SDS011;4237;47.030;15.396;2023-07-02T00:57:04;4.53;;;2.17;;
8399;SDS011;4237;47.030;15.396;2023-07-02T00:59:33;2.50;;;2.05;;
8399;SDS011;4237;47.030;15.396;2023-07-02T01:02:03;3.43;;;2.33;;
8399;SDS011;4237;47.030;15.396;2023-07-02T01:04:32;2.80;;;1.95;;
8399;SDS011;4237;47.030;15.396;2023-07-02T01:07:00;2.23;;;2.00;;
8399;SDS011;4237;47.030;15.396;2023-07-02T01:09:28;3.50;;;2.40;;
8399;SDS011;4237;47.030;15.396;2023-07-02T01:11:57;4.05;;;2.10;;
8399;SDS011;4237;47.030;15.396;2023-07-02T01:14:27;3.37;;;2.00;;
8399;SDS011;4237;47.030;15.396;2023-07-02T01:16:56;3.37;;;2.20;;
8399;SDS011;4237;47.030;15.396;2023-07-02T01:19:44;4.47;;;2.27;;
8399;SDS011;4237;47.030;15.396;2023-07-02T01:22:15;2.90;;;2.20;;
8399;SDS011;4237;47.030;15.396;2023-07-02T01:24:44;5.47;;;2.10;;
8399;SDS011;4237;47.030;15.396;2023-07-02T01:27:14;3.60;;;2.23;;
8399;SDS011;4237;47.030;15.396;2023-07-02T01:29:43;3.30;;;2.10;;
8399;SDS011;4237;47.030;15.396;2023-07-02T01:32:13;3.20;;;2.27;;
8399;SDS011;4237;47.030;15.396;2023-07-02T01:34:42;2.90;;;2.10;;
8399;SDS011;4237;47.030;15.396;2023-07-02T01:37:15;3.50;;;2.10;;
8399;SDS011;4237;47.030;15.396;2023-07-02T01:39:45;2.80;;;2.10;;
8399;SDS011;4237;47.030;15.396;2023-07-02T01:42:19;2.83;;;2.10;;
8399;SDS011;4237;47.030;15.396;2023-07-02T01:44:43;4.35;;;2.50;;
8399;SDS011;4237;47.030;15.396;2023-07-02T01:47:12;2.90;;;2.00;;
8399;SDS011;4237;47.030;15.396;2023-07-02T01:49:40;3.93;;;2.20;;
8399;SDS011;4237;47.030;15.396;2023-07-02T01:52:09;3.30;;;2.43;;
8399;SDS011;4237;47.030;15.396;2023-07-02T01:54:37;3.00;;;2.20;;
8399;SDS011;4237;47.030;15.396;2023-07-02T01:57:05;3.90;;;2.50;;
8399;SDS011;4237;47.030;15.396;2023-07-02T01:59:33;3.15;;;2.20;;
8399;SDS011;4237;47.030;15.396;2023-07-02T02:02:02;3.20;;;2.30;;
8399;SDS011;4237;47.030;15.396;2023-07-02T02:04:30;2.60;;;2.10;;
8399;SDS011;4237;47.030;15.396;2023-07-02T02:06:58;4.40;;;2.30;;
8399;SDS011;4237;47.030;15.396;2023-07-02T02:09:26;2.00;;;1.80;;
8399;SDS011;4237;47.030;15.396;2023-07-02T02:11:55;3.00;;;2.10;;
8399;SDS011;4237;47.030;15.396;2023-07-02T02:14:23;2.77;;;2.37;;
8399;SDS011;4237;47.030;15.396;2023-07-02T02:16:52;2.70;;;2.10;;
8399;SDS011;4237;47.030;15.396;2023-07-02T02:19:20;3.05;;;2.20;;
8399;SDS011;4237;47.030;15.396;2023-07-02T02:21:48;3.07;;;2.40;;
8399;SDS011;4237;47.030;15.396;2023-07-02T02:24:16;2.50;;;2.30;;
8399;SDS011;4237;47.030;15.396;2023-07-02T02:26:44;3.00;;;2.30;;
8399;SDS011;4237;47.030;15.396;2023-07-02T02:29:12;6.37;;;2.70;;
8399;SDS011;4237;47.030;15.396;2023-07-02T02:31:42;4.25;;;2.50;;
8399;SDS011;4237;47.030;15.396;2023-07-02T02:34:10;8.00;;;2.50;;
8399;SDS011;4237;47.030;15.396;2023-07-02T02:36:39;2.57;;;2.13;;
8399;SDS011;4237;47.030;15.396;2023-07-02T02:39:07;3.23;;;2.30;;
8399;SDS011;4237;47.030;15.396;2023-07-02T02:41:35;5.13;;;2.50;;
8399;SDS011;4237;47.030;15.396;2023-07-02T02:44:03;3.40;;;2.37;;
8399;SDS011;4237;47.030;15.396;2023-07-02T02:46:31;5.73;;;2.40;;
8399;SDS011;4237;47.030;15.396;2023-07-02T02:49:00;3.13;;;2.20;;
8399;SDS011;4237;47.030;15.396;2023-07-02T02:51:28;3.80;;;2.30;;
8399;SDS011;4237;47.030;15.396;2023-07-02T02:53:56;7.93;;;2.50;;
8399;SDS011;4237;47.030;15.396;2023-07-02T02:56:24;3.75;;;2.45;;
8399;SDS011;4237;47.030;15.396;2023-07-02T02:58:52;5.25;;;2.65;;
8399;SDS011;4237;47.030;15.396;2023-07-02T03:01:21;3.65;;;2.60;;
8399;SDS011;4237;47.030;15.396;2023-07-02T03:03:49;3.77;;;2.53;;
8399;SDS011;4237;47.030;15.396;2023-07-02T03:06:17;3.15;;;2.45;;
8399;SDS011;4237;47.030;15.396;2023-07-02T03:08:45;5.70;;;2.45;;
8399;SDS011;4237;47.030;15.396;2023-07-02T03:11:14;3.95;;;2.80;;
8399;SDS011;4237;47.030;15.396;2023-07-02T03:13:42;4.10;;;2.90;;
8399;SDS011;4237;47.030;15.396;2023-07-02T03:16:10;3.10;;;2.47;;
8399;SDS011;4237;47.030;15.396;2023-07-02T03:18:38;5.00;;;3.00;;
8399;SDS011;4237;47.030;15.396;2023-07-02T03:21:16;3.07;;;2.53;;
8399;SDS011;4237;47.030;15.396;2023-07-02T03:23:44;4.15;;;2.55;;
8399;SDS011;4237;47.030;15.396;2023-07-02T03:26:12;3.70;;;2.70;;
8399;SDS011;4237;47.030;15.396;2023-07-02T03:28:40;3.67;;;2.47;;
8399;SDS011;4237;47.030;15.396;2023-07-02T03:31:09;2.70;;;2.20;;
8399;SDS011;4237;47.030;15.396;2023-07-02T03:33:37;4.80;;;2.35;;
8399;SDS011;4237;47.030;15.396;2023-07-02T03:36:05;4.30;;;2.30;;
8399;SDS011;4237;47.030;15.396;2023-07-02T03:38:34;3.70;;;2.40;;
8399;SDS011;4237;47.030;15.396;2023-07-02T03:41:02;4.53;;;2.63;;
8399;SDS011;4237;47.030;15.396;2023-07-02T03:43:30;4.40;;;2.50;;
8399;SDS011;4237;47.030;15.396;2023-07-02T03:45:58;3.40;;;2.50;;
8399;SDS011;4237;47.030;15.396;2023-07-02T03:48:26;3.10;;;2.30;;
8399;SDS011;4237;47.030;15.396;2023-07-02T03:50:54;2.77;;;2.43;;
8399;SDS011;4237;47.030;15.396;2023-07-02T03:53:23;2.90;;;2.50;;
8399;SDS011;4237;47.030;15.396;2023-07-02T03:55:51;3.00;;;2.45;;
8399;SDS011;4237;47.030;15.396;2023-07-02T03:58:19;4.07;;;2.53;;
8399;SDS011;4237;47.030;15.396;2023-07-02T04:00:47;4.55;;;2.60;;
8399;SDS011;4237;47.030;15.396;2023-07-02T04:03:17;2.33;;;2.13;;
8399;SDS011;4237;47.030;15.396;2023-07-02T04:05:45;4.10;;;2.70;;
8399;SDS011;4237;47.030;15.396;2023-07-02T04:08:14;4.43;;;2.40;;
8399;SDS011;4237;47.030;15.396;2023-07-02T04:10:43;3.95;;;2.45;;
8399;SDS011;4237;47.030;15.396;2023-07-02T04:13:11;3.85;;;2.35;;
8399;SDS011;4237;47.030;15.396;2023-07-02T04:15:39;3.50;;;2.70;;
8399;SDS011;4237;47.030;15.396;2023-07-02T04:18:07;2.77;;;2.10;;
8399;SDS011;4237;47.030;15.396;2023-07-02T04:20:35;2.73;;;2.40;;
8399;SDS011;4237;47.030;15.396;2023-07-02T04:23:06;4.30;;;2.70;;
8399;SDS011;4237;47.030;15.396;2023-07-02T04:25:34;3.60;;;2.65;;
8399;SDS011;4237;47.030;15.396;2023-07-02T04:28:02;2.90;;;2.40;;
8399;SDS011;4237;47.030;15.396;2023-07-02T04:30:31;3.70;;;2.70;;
8399;SDS011;4237;47.030;15.396;2023-07-02T04:32:59;5.65;;;2.55;;
8399;SDS011;4237;47.030;15.396;2023-07-02T04:35:28;2.93;;;2.37;;
8399;SDS011;4237;47.030;15.396;2023-07-02T04:37:56;3.90;;;2.80;;
8399;SDS011;4237;47.030;15.396;2023-07-02T04:40:24;3.20;;;2.67;;
8399;SDS011;4237;47.030;15.396;2023-07-02T04:42:52;3.30;;;2.67;;
8399;SDS011;4237;47.030;15.396;2023-07-02T04:45:28;4.20;;;2.90;;
8399;SDS011;4237;47.030;15.396;2023-07-02T04:47:52;5.20;;;2.95;;
8399;SDS011;4237;47.030;15.396;2023-07-02T04:50:21;6.15;;;2.65;;
8399;SDS011;4237;47.030;15.396;2023-07-02T04:52:49;3.40;;;2.55;;
8399;SDS011;4237;47.030;15.396;2023-07-02T04:55:17;5.07;;;2.67;;
8399;SDS011;4237;47.030;15.396;2023-07-02T04:57:45;13.13;;;2.80;;
8399;SDS011;4237;47.030;15.396;2023-07-02T05:00:14;4.60;;;2.60;;
8399;SDS011;4237;47.030;15.396;2023-07-02T05:02:42;3.50;;;2.75;;
8399;SDS011;4237;47.030;15.396;2023-07-02T05:05:10;4.65;;;2.80;;
8399;SDS011;4237;47.030;15.396;2023-07-02T05:07:40;3.35;;;2.60;;
8399;SDS011;4237;47.030;15.396;2023-07-02T05:10:09;4.20;;;2.90;;
8399;SDS011;4237;47.030;15.396;2023-07-02T05:12:37;3.05;;;2.45;;
8399;SDS011;4237;47.030;15.396;2023-07-02T05:15:06;5.20;;;2.65;;
8399;SDS011;4237;47.030;15.396;2023-07-02T05:17:34;3.55;;;2.60;;
8399;SDS011;4237;47.030;15.396;2023-07-02T05:20:03;2.67;;;2.43;;
8399;SDS011;4237;47.030;15.396;2023-07-02T05:22:32;3.90;;;2.80;;
8399;SDS011;4237;47.030;15.396;2023-07-02T05:25:00;5.20;;;2.90;;
8399;SDS011;4237;47.030;15.396;2023-07-02T05:27:28;3.70;;;3.07;;
8399;SDS011;4237;47.030;15.396;2023-07-02T05:29:57;4.23;;;2.67;;
8399;SDS011;4237;47.030;15.396;2023-07-02T05:32:25;3.13;;;2.47;;
8399;SDS011;4237;47.030;15.396;2023-07-02T05:34:53;6.83;;;3.07;;
8399;SDS011;4237;47.030;15.396;2023-07-02T05:37:21;2.90;;;2.60;;
8399;SDS011;4237;47.030;15.396;2023-07-02T05:39:50;5.00;;;2.45;;
8399;SDS011;4237;47.030;15.396;2023-07-02T05:42:19;4.50;;;2.67;;
8399;SDS011;4237;47.030;15.396;2023-07-02T05:44:47;4.37;;;2.70;;
8399;SDS011;4237;47.030;15.396;2023-07-02T05:47:15;3.25;;;2.60;;
8399;SDS011;4237;47.030;15.396;2023-07-02T05:49:43;3.30;;;2.70;;
8399;SDS011;4237;47.030;15.396;2023-07-02T05:52:11;3.45;;;2.70;;
8399;SDS011;4237;47.030;15.396;2023-07-02T05:54:45;4.45;;;2.70;;
8399;SDS011;4237;47.030;15.396;2023-07-02T05:57:09;3.35;;;2.70;;
8399;SDS011;4237;47.030;15.396;2023-07-02T05:59:37;3.70;;;2.60;;
8399;SDS011;4237;47.030;15.396;2023-07-02T06:02:05;4.95;;;2.70;;
8399;SDS011;4237;47.030;15.396;2023-07-02T06:04:34;4.37;;;2.47;;
8399;SDS011;4237;47.030;15.396;2023-07-02T06:07:02;5.30;;;2.50;;
8399;SDS011;4237;47.030;15.396;2023-07-02T06:09:30;3.90;;;2.40;;
8399;SDS011;4237;47.030;15.396;2023-07-02T06:11:59;3.13;;;2.50;;
8399;SDS011;4237;47.030;15.396;2023-07-02T06:14:27;3.45;;;2.25;;
8399;SDS011;4237;47.030;15.396;2023-07-02T06:16:56;3.40;;;2.55;;
8399;SDS011;4237;47.030;15.396;2023-07-02T06:19:24;4.10;;;3.00;;
8399;SDS011;4237;47.030;15.396;2023-07-02T06:21:52;3.50;;;2.87;;
8399;SDS011;4237;47.030;15.396;2023-07-02T06:24:21;3.90;;;2.30;;
8399;SDS011;4237;47.030;15.396;2023-07-02T06:26:49;6.13;;;3.20;;
8399;SDS011;4237;47.030;15.396;2023-07-02T06:29:17;5.03;;;2.70;;
8399;SDS011;4237;47.030;15.396;2023-07-02T06:31:45;4.80;;;2.50;;
8399;SDS011;4237;47.030;15.396;2023-07-02T06:34:13;4.40;;;2.90;;
8399;SDS011;4237;47.030;15.396;2023-07-02T06:36:42;4.15;;;2.80;;
8399;SDS011;4237;47.030;15.396;2023-07-02T06:39:10;4.70;;;3.00;;
8399;SDS011;4237;47.030;15.396;2023-07-02T06:41:38;2.87;;;2.40;;
8399;SDS011;4237;47.030;15.396;2023-07-02T06:44:06;4.40;;;2.57;;
8399;SDS011;4237;47.030;15.396;2023-07-02T06:46:35;3.55;;;2.30;;
8399;SDS011;4237;47.030;15.396;2023-07-02T06:49:03;6.40;;;2.90;;
8399;SDS011;4237;47.030;15.396;2023-07-02T06:51:31;3.30;;;2.60;;
8399;SDS011;4237;47.030;15.396;2023-07-02T06:54:00;5.23;;;3.00;;
8399;SDS011;4237;47.030;15.396;2023-07-02T06:56:29;4.50;;;3.00;;
8399;SDS011;4237;47.030;15.396;2023-07-02T06:58:58;4.00;;;2.70;;
8399;SDS011;4237;47.030;15.396;2023-07-02T07:01:26;3.10;;;2.40;;
8399;SDS011;4237;47.030;15.396;2023-07-02T07:03:54;3.45;;;2.65;;
8399;SDS011;4237;47.030;15.396;2023-07-02T07:06:23;4.03;;;2.90;;
8399;SDS011;4237;47.030;15.396;2023-07-02T07:08:51;5.05;;;2.70;;
8399;SDS011;4237;47.030;15.396;2023-07-02T07:11:19;3.20;;;2.70;;
8399;SDS011;4237;47.030;15.396;2023-07-02T07:13:47;3.65;;;2.50;;
8399;SDS011;4237;47.030;15.396;2023-07-02T07:16:16;2.40;;;2.20;;
8399;SDS011;4237;47.030;15.396;2023-07-02T07:18:44;2.90;;;2.40;;
8399;SDS011;4237;47.030;15.396;2023-07-02T07:21:12;5.95;;;2.90;;
8399;SDS011;4237;47.030;15.396;2023-07-02T07:23:41;2.42;;;2.08;;
8399;SDS011;4237;47.030;15.396;2023-07-02T07:26:09;3.93;;;2.77;;
8399;SDS011;4237;47.030;15.396;2023-07-02T07:28:37;3.35;;;2.65;;
8399;SDS011;4237;47.030;15.396;2023-07-02T07:31:05;2.90;;;2.70;;
8399;SDS011;4237;47.030;15.396;2023-07-02T07:33:33;3.40;;;2.37;;
8399;SDS011;4237;47.030;15.396;2023-07-02T07:36:01;2.90;;;2.60;;
8399;SDS011;4237;47.030;15.396;2023-07-02T07:38:30;4.90;;;2.00;;
8399;SDS011;4237;47.030;15.396;2023-07-02T07:40:58;2.55;;;2.00;;
8399;SDS011;4237;47.030;15.396;2023-07-02T07:43:26;2.55;;;2.25;;
8399;SDS011;4237;47.030;15.396;2023-07-02T07:45:54;3.30;;;2.30;;
8399;SDS011;4237;47.030;15.396;2023-07-02T07:48:23;2.37;;;2.10;;
8399;SDS011;4237;47.030;15.396;2023-07-02T07:50:51;3.40;;;2.40;;
8399;SDS011;4237;47.030;15.396;2023-07-02T07:53:19;3.55;;;2.60;;
8399;SDS011;4237;47.030;15.396;2023-07-02T07:55:48;4.20;;;2.50;;
8399;SDS011;4237;47.030;15.396;2023-07-02T07:58:16;2.60;;;2.40;;
8399;SDS011;4237;47.030;15.396;2023-07-02T08:00:44;3.27;;;2.12;;
8399;SDS011;4237;47.030;15.396;2023-07-02T08:03:12;3.30;;;2.10;;
8399;SDS011;4237;47.030;15.396;2023-07-02T08:05:40;2.80;;;2.30;;
8399;SDS011;4237;47.030;15.396;2023-07-02T08:08:09;3.17;;;2.00;;
8399;SDS011;4237;47.030;15.396;2023-07-02T08:10:37;2.67;;;2.20;;
8399;SDS011;4237;47.030;15.396;2023-07-02T08:13:05;2.50;;;2.30;;
8399;SDS011;4237;47.030;15.396;2023-07-02T08:15:33;2.67;;;2.12;;
8399;SDS011;4237;47.030;15.396;2023-07-02T08:18:01;2.25;;;2.00;;
8399;SDS011;4237;47.030;15.396;2023-07-02T08:20:31;2.30;;;1.93;;
8399;SDS011;4237;47.030;15.396;2023-07-02T08:22:59;2.10;;;1.90;;
8399;SDS011;4237;47.030;15.396;2023-07-02T08:25:27;2.30;;;2.10;;
8399;SDS011;4237;47.030;15.396;2023-07-02T08:27:56;2.72;;;2.20;;
8399;SDS011;4237;47.030;15.396;2023-07-02T08:30:24;2.30;;;2.10;;
8399;SDS011;4237;47.030;15.396;2023-07-02T08:32:52;2.27;;;2.08;;
8399;SDS011;4237;47.030;15.396;2023-07-02T08:35:22;1.77;;;1.67;;
8399;SDS011;4237;47.030;15.396;2023-07-02T08:37:50;2.75;;;1.50;;
8399;SDS011;4237;47.030;15.396;2023-07-02T08:40:18;1.80;;;1.65;;
8399;SDS011;4237;47.030;15.396;2023-07-02T08:42:47;2.70;;;1.90;;
8399;SDS011;4237;47.030;15.396;2023-07-02T08:45:16;2.05;;;1.85;;
8399;SDS011;4237;47.030;15.396;2023-07-02T08:47:44;1.92;;;1.70;;
8399;SDS011;4237;47.030;15.396;2023-07-02T08:50:13;2.40;;;1.70;;
8399;SDS011;4237;47.030;15.396;2023-07-02T08:52:41;2.10;;;1.80;;
8399;SDS011;4237;47.030;15.396;2023-07-02T08:55:11;3.60;;;1.90;;
8399;SDS011;4237;47.030;15.396;2023-07-02T08:57:40;1.85;;;1.70;;
8399;SDS011;4237;47.030;15.396;2023-07-02T09:00:10;2.65;;;1.90;;
8399;SDS011;4237;47.030;15.396;2023-07-02T09:02:38;2.00;;;1.80;;
8399;SDS011;4237;47.030;15.396;2023-07-02T09:05:07;3.57;;;1.83;;
8399;SDS011;4237;47.030;15.396;2023-07-02T09:07:48;2.00;;;1.80;;
8399;SDS011;4237;47.030;15.396;2023-07-02T09:10:26;2.23;;;1.93;;
8399;SDS011;4237;47.030;15.396;2023-07-02T09:13:05;2.17;;;1.97;;
8399;SDS011;4237;47.030;15.396;2023-07-02T09:15:37;1.70;;;1.60;;
8399;SDS011;4237;47.030;15.396;2023-07-02T09:20:45;2.52;;;1.80;;
8399;SDS011;4237;47.030;15.396;2023-07-02T09:23:13;2.12;;;1.60;;
8399;SDS011;4237;47.030;15.396;2023-07-02T09:25:41;2.00;;;1.80;;
8399;SDS011;4237;47.030;15.396;2023-07-02T09:28:21;2.77;;;1.98;;
8399;SDS011;4237;47.030;15.396;2023-07-02T09:30:49;2.05;;;1.80;;
8399;SDS011;4237;47.030;15.396;2023-07-02T09:33:17;5.33;;;1.90;;
8399;SDS011;4237;47.030;15.396;2023-07-02T09:35:45;2.35;;;2.05;;
8399;SDS011;4237;47.030;15.396;2023-07-02T09:38:14;2.17;;;1.30;;
8399;SDS011;4237;47.030;15.396;2023-07-02T09:40:46;1.62;;;1.40;;
8399;SDS011;4237;47.030;15.396;2023-07-02T09:43:20;2.27;;;2.08;;
8399;SDS011;4237;47.030;15.396;2023-07-02T09:45:49;2.10;;;1.90;;
8399;SDS011;4237;47.030;15.396;2023-07-02T09:48:17;1.60;;;1.50;;
8399;SDS011;4237;47.030;15.396;2023-07-02T09:50:47;1.70;;;1.60;;
8399;SDS011;4237;47.030;15.396;2023-07-02T09:53:16;2.75;;;1.87;;
8399;SDS011;4237;47.030;15.396;2023-07-02T09:55:44;1.50;;;1.40;;
8399;SDS011;4237;47.030;15.396;2023-07-02T09:58:12;3.60;;;1.70;;
8399;SDS011;4237;47.030;15.396;2023-07-02T10:00:41;2.90;;;2.00;;
8399;SDS011;4237;47.030;15.396;2023-07-02T10:03:09;2.20;;;1.87;;
8399;SDS011;4237;47.030;15.396;2023-07-02T10:05:38;3.98;;;1.80;;
8399;SDS011;4237;47.030;15.396;2023-07-02T10:08:13;2.17;;;1.72;;
8399;SDS011;4237;47.030;15.396;2023-07-02T10:10:44;2.15;;;1.80;;
8399;SDS011;4237;47.030;15.396;2023-07-02T10:13:12;2.72;;;1.85;;
8399;SDS011;4237;47.030;15.396;2023-07-02T10:15:40;5.47;;;4.97;;
8399;SDS011;4237;47.030;15.396;2023-07-02T10:18:09;3.55;;;2.95;;
8399;SDS011;4237;47.030;15.396;2023-07-02T10:20:38;2.20;;;2.00;;
8399;SDS011;4237;47.030;15.396;2023-07-02T10:23:07;2.92;;;2.55;;
8399;SDS011;4237;47.030;15.396;2023-07-02T10:25:36;3.27;;;2.10;;
8399;SDS011;4237;47.030;15.396;2023-07-02T10:28:14;2.72;;;2.02;;
8399;SDS011;4237;47.030;15.396;2023-07-02T10:30:42;1.65;;;1.55;;
8399;SDS011;4237;47.030;15.396;2023-07-02T10:33:11;3.10;;;1.62;;
8399;SDS011;4237;47.030;15.396;2023-07-02T10:35:40;4.08;;;2.30;;
8399;SDS011;4237;47.030;15.396;2023-07-02T10:38:23;2.08;;;1.80;;
8399;SDS011;4237;47.030;15.396;2023-07-02T10:40:55;3.70;;;1.72;;
8399;SDS011;4237;47.030;15.396;2023-07-02T10:43:24;1.72;;;1.52;;
8399;SDS011;4237;47.030;15.396;2023-07-02T10:45:52;2.75;;;2.10;;
8399;SDS011;4237;47.030;15.396;2023-07-02T10:48:21;2.02;;;1.65;;
8399;SDS011;4237;47.030;15.396;2023-07-02T10:50:49;2.35;;;2.15;;
8399;SDS011;4237;47.030;15.396;2023-07-02T10:53:18;2.00;;;1.82;;
8399;SDS011;4237;47.030;15.396;2023-07-02T10:55:52;1.80;;;1.70;;
8399;SDS011;4237;47.030;15.396;2023-07-02T10:58:16;2.30;;;2.10;;
8399;SDS011;4237;47.030;15.396;2023-07-02T11:00:48;1.95;;;1.72;;
8399;SDS011;4237;47.030;15.396;2023-07-02T11:03:23;6.03;;;2.00;;
8399;SDS011;4237;47.030;15.396;2023-07-02T11:05:51;1.67;;;1.57;;
8399;SDS011;4237;47.030;15.396;2023-07-02T11:08:20;5.20;;;3.75;;
8399;SDS011;4237;47.030;15.396;2023-07-02T11:10:48;2.17;;;1.98;;
8399;SDS011;4237;47.030;15.396;2023-07-02T11:13:17;3.00;;;2.70;;
8399;SDS011;4237;47.030;15.396;2023-07-02T11:15:46;3.33;;;1.87;;
8399;SDS011;4237;47.030;15.396;2023-07-02T11:18:15;2.22;;;1.67;;
8399;SDS011;4237;47.030;15.396;2023-07-02T11:20:44;1.77;;;1.67;;
8399;SDS011;4237;47.030;15.396;2023-07-02T11:23:25;2.08;;;1.75;;
8399;SDS011;4237;47.030;15.396;2023-07-02T11:25:57;2.10;;;1.90;;
8399;SDS011;4237;47.030;15.396;2023-07-02T11:28:26;2.42;;;1.75;;
8399;SDS011;4237;47.030;15.396;2023-07-02T11:30:55;2.20;;;2.00;;
8399;SDS011;4237;47.030;15.396;2023-07-02T11:33:36;2.30;;;2.10;;
8399;SDS011;4237;47.030;15.396;2023-07-02T11:36:05;2.00;;;1.80;;
8399;SDS011;4237;47.030;15.396;2023-07-02T11:38:34;2.55;;;1.92;;
8399;SDS011;4237;47.030;15.396;2023-07-02T11:41:03;2.52;;;2.05;;
8399;SDS011;4237;47.030;15.396;2023-07-02T11:43:32;2.02;;;1.80;;
8399;SDS011;4237;47.030;15.396;2023-07-02T11:46:01;2.27;;;1.92;;
8399;SDS011;4237;47.030;15.396;2023-07-02T11:48:30;2.47;;;1.95;;
8399;SDS011;4237;47.030;15.396;2023-07-02T11:50:58;3.35;;;2.10;;
8399;SDS011;4237;47.030;15.396;2023-07-02T11:53:26;1.85;;;1.72;;
8399;SDS011;4237;47.030;15.396;2023-07-02T11:55:54;2.00;;;1.80;;
8399;SDS011;4237;47.030;15.396;2023-07-02T11:58:22;3.55;;;1.80;;
8399;SDS011;4237;47.030;15.396;2023-07-02T12:00:50;1.72;;;1.62;;
8399;SDS011;4237;47.030;15.396;2023-07-02T12:03:19;1.98;;;1.80;;
8399;SDS011;4237;47.030;15.396;2023-07-02T12:05:47;2.08;;;1.75;;
8399;SDS011;4237;47.030;15.396;2023-07-02T12:08:15;3.00;;;1.65;;
8399;SDS011;4237;47.030;15.396;2023-07-02T12:10:43;2.02;;;1.77;;
8399;SDS011;4237;47.030;15.396;2023-07-02T12:13:12;2.35;;;1.80;;
8399;SDS011;4237;47.030;15.396;2023-07-02T12:15:40;2.62;;;1.80;;
8399;SDS011;4237;47.030;15.396;2023-07-02T12:18:09;1.80;;;1.70;;
8399;SDS011;4237;47.030;15.396;2023-07-02T12:20:38;2.55;;;1.60;;
8399;SDS011;4237;47.030;15.396;2023-07-02T12:23:06;1.92;;;1.70;;
8399;SDS011;4237;47.030;15.396;2023-07-02T12:25:34;2.47;;;1.85;;
8399;SDS011;4237;47.030;15.396;2023-07-02T12:28:03;2.55;;;1.80;;
8399;SDS011;4237;47.030;15.396;2023-07-02T12:30:32;2.55;;;1.87;;
8399;SDS011;4237;47.030;15.396;2023-07-02T12:33:00;2.37;;;1.80;;
8399;SDS011;4237;47.030;15.396;2023-07-02T12:35:29;2.92;;;1.98;;
8399;SDS011;4237;47.030;15.396;2023-07-02T12:37:59;4.62;;;1.80;;
8399;SDS011;4237;47.030;15.396;2023-07-02T12:40:30;2.20;;;1.80;;
8399;SDS011;4237;47.030;15.396;2023-07-02T12:42:58;3.62;;;2.00;;
8399;SDS011;4237;47.030;15.396;2023-07-02T12:45:26;2.52;;;1.87;;
8399;SDS011;4237;47.030;15.396;2023-07-02T12:47:54;3.92;;;1.92;;
8399;SDS011;4237;47.030;15.396;2023-07-02T12:50:22;2.37;;;1.95;;
8399;SDS011;4237;47.030;15.396;2023-07-02T12:52:51;1.00;;;1.00;;
8399;SDS011;4237;47.030;15.396;2023-07-02T12:55:19;0.62;;;0.62;;
8399;SDS011;4237;47.030;15.396;2023-07-02T12:57:47;1.15;;;1.05;;
8399;SDS011;4237;47.030;15.396;2023-07-02T13:00:16;0.82;;;0.82;;
8399;SDS011;4237;47.030;15.396;2023-07-02T13:02:45;0.78;;;0.78;;
8399;SDS011;4237;47.030;15.396;2023-07-02T13:05:14;0.93;;;0.88;;
8399;SDS011;4237;47.030;15.396;2023-07-02T13:07:42;1.07;;;0.98;;
8399;SDS011;4237;47.030;15.396;2023-07-02T13:10:11;0.80;;;0.80;;
8399;SDS011;4237;47.030;15.396;2023-07-02T13:12:41;1.42;;;0.80;;
8399;SDS011;4237;47.030;15.396;2023-07-02T13:15:10;0.80;;;0.80;;
8399;SDS011;4237;47.030;15.396;2023-07-02T13:17:40;2.20;;;0.80;;
8399;SDS011;4237;47.030;15.396;2023-07-02T13:20:09;1.60;;;0.85;;
8399;SDS011;4237;47.030;15.396;2023-07-02T13:22:38;0.88;;;0.88;;
8399;SDS011;4237;47.030;15.396;2023-07-02T13:25:08;1.72;;;1.22;;
8399;SDS011;4237;47.030;15.396;2023-07-02T13:27:37;1.47;;;1.37;;
8399;SDS011;4237;47.030;15.396;2023-07-02T13:30:06;1.40;;;1.30;;
8399;SDS011;4237;47.030;15.396;2023-07-02T13:32:35;2.67;;;1.72;;
8399;SDS011;4237;47.030;15.396;2023-07-02T13:35:05;1.27;;;1.10;;
8399;SDS011;4237;47.030;15.396;2023-07-02T13:37:34;1.15;;;1.05;;
8399;SDS011;4237;47.030;15.396;2023-07-02T13:40:02;1.47;;;1.17;;
8399;SDS011;4237;47.030;15.396;2023-07-02T13:42:32;1.40;;;1.30;;
8399;SDS011;4237;47.030;15.396;2023-07-02T13:45:02;1.17;;;1.10;;
8399;SDS011;4237;47.030;15.396;2023-07-02T13:47:31;3.37;;;1.42;;
8399;SDS011;4237;47.030;15.396;2023-07-02T13:50:00;2.12;;;1.80;;
8399;SDS011;4237;47.030;15.396;2023-07-02T13:52:29;1.92;;;1.77;;
8399;SDS011;4237;47.030;15.396;2023-07-02T13:54:57;1.87;;;1.67;;
8399;SDS011;4237;47.030;15.396;2023-07-02T13:57:26;1.82;;;1.70;;
8399;SDS011;4237;47.030;15.396;2023-07-02T13:59:55;1.62;;;1.32;;
8399;SDS011;4237;47.030;15.396;2023-07-02T14:02:24;1.67;;;1.52;;
8399;SDS011;4237;47.030;15.396;2023-07-02T14:04:53;1.82;;;1.70;;
8399;SDS011;4237;47.030;15.396;2023-07-02T14:07:21;1.75;;;1.37;;
8399;SDS011;4237;47.030;15.396;2023-07-02T14:09:50;1.57;;;1.45;;
8399;SDS011;4237;47.030;15.396;2023-07-02T14:12:19;1.62;;;1.52;;
8399;SDS011;4237;47.030;15.396;2023-07-02T14:14:47;1.70;;;1.60;;
8399;SDS011;4237;47.030;15.396;2023-07-02T14:17:16;3.02;;;1.82;;
8399;SDS011;4237;47.030;15.396;2023-07-02T14:19:45;1.67;;;1.57;;
8399;SDS011;4237;47.030;15.396;2023-07-02T14:22:14;1.70;;;1.60;;
8399;SDS011;4237;47.030;15.396;2023-07-02T14:24:43;1.67;;;1.52;;
8399;SDS011;4237;47.030;15.396;2023-07-02T14:27:12;2.10;;;1.65;;
8399;SDS011;4237;47.030;15.396;2023-07-02T14:29:41;1.60;;;1.50;;
8399;SDS011;4237;47.030;15.396;2023-07-02T14:32:12;2.05;;;1.72;;
8399;SDS011;4237;47.030;15.396;2023-07-02T14:34:41;2.05;;;1.77;;
8399;SDS011;4237;47.030;15.396;2023-07-02T14:37:10;1.98;;;1.75;;
8399;SDS011;4237;47.030;15.396;2023-07-02T14:39:39;2.35;;;1.95;;
8399;SDS011;4237;47.030;15.396;2023-07-02T14:42:08;3.85;;;2.00;;
8399;SDS011;4237;47.030;15.396;2023-07-02T14:44:37;2.47;;;2.20;;
8399;SDS011;4237;47.030;15.396;2023-07-02T14:47:06;2.40;;;2.10;;
8399;SDS011;4237;47.030;15.396;2023-07-02T14:49:34;2.50;;;2.15;;
8399;SDS011;4237;47.030;15.396;2023-07-02T14:52:03;2.83;;;1.85;;
8399;SDS011;4237;47.030;15.396;2023-07-02T14:54:32;3.52;;;2.20;;
8399;SDS011;4237;47.030;15.396;2023-07-02T14:57:01;2.33;;;2.02;;
8399;SDS011;4237;47.030;15.396;2023-07-02T14:59:29;4.00;;;2.15;;
8399;SDS011;4237;47.030;15.396;2023-07-02T15:01:58;2.30;;;2.07;;
8399;SDS011;4237;47.030;15.396;2023-07-02T15:04:27;2.27;;;1.93;;
8399;SDS011;4237;47.030;15.396;2023-07-02T15:06:56;4.25;;;2.00;;
8399;SDS011;4237;47.030;15.396;2023-07-02T15:09:24;2.20;;;2.00;;
8399;SDS011;4237;47.030;15.396;2023-07-02T15:11:52;2.52;;;2.08;;